MST,Max TemperatureF,Mean TemperatureF,Min TemperatureF,Max Dew PointF,MeanDew PointF,Min DewpointF,Max Humidity, Mean Humidity, Min Humidity, Max Sea Level PressureIn, Mean Sea Level PressureIn, Min Sea Level PressureIn, Max VisibilityMiles, Mean VisibilityMiles, Min VisibilityMiles, Max Wind SpeedMPH, Mean Wind SpeedMPH, Max Gust SpeedMPH,PrecipitationIn, CloudCover, Events, WindDirDegrees
2013-2-1,54,35,15,28,19,12,96,73,24,30.23,30.14,30.00,10,8,1,18,12,29,0.00,3,,240
2013-2-2,55,38,20,27,18,11,88,55,24,30.35,30.30,30.22,10,10,10,15,9,,0.00,0,,289
2013-2-3,55,36,16,20,16,10,77,50,23,30.30,30.06,29.89,10,10,10,22,9,,0.00,0,,232
2013-2-4,57,40,22,17,12,8,66,40,17,30.02,29.93,29.83,10,10,10,17,9,25,0.00,0,,271
2013-2-5,56,37,18,20,15,10,68,43,23,30.09,30.00,29.91,10,10,10,15,8,,0.00,0,,240
2013-2-6,63,43,22,27,19,15,72,39,19,29.95,29.81,29.70,10,10,2,23,14,31,0.00,2,,349
2013-2-7,52,38,23,27,20,10,88,53,27,30.22,30.11,29.95,10,10,10,16,11,23,0.00,1,,335
2013-2-8,58,41,24,23,20,14,64,43,26,30.13,29.92,29.75,10,9,5,38,22,47,0.00,2,,182
2013-2-9,58,43,28,30,22,18,88,53,23,29.77,29.51,29.33,10,8,0,51,24,63,0.00,4,,191
2013-2-10,40,27,14,21,17,9,80,66,41,30.15,29.70,29.40,10,10,10,25,18,41,0.00,3,,321
2013-2-11,35,23,11,11,8,5,81,58,35,30.24,30.17,30.10,10,10,10,12,8,,0.00,4,,234
2013-2-12,43,26,8,14,5,0,77,47,17,30.15,30.10,30.03,10,10,10,18,8,29,0.00,1,,309
2013-2-13,53,33,13,16,10,5,71,44,19,30.06,29.99,29.91,10,10,10,22,11,32,0.00,0,,302
2013-2-14,38,25,12,32,21,8,89,72,48,30.40,30.19,30.02,10,7,1,23,12,30,T,6,Snow,328
2013-2-15,39,24,9,22,15,5,92,71,39,30.45,30.38,30.27,10,10,2,20,10,26,T,4,Snow,306
2013-2-16,58,39,20,19,15,10,74,45,20,30.31,30.12,29.98,10,10,10,26,14,32,0.00,1,,285
2013-2-17,62,41,20,23,9,-2,63,32,8,29.97,29.69,29.49,10,10,10,28,12,39,0.00,0,,231
2013-2-18,44,28,11,21,15,9,92,60,26,30.19,29.96,29.64,10,10,10,33,20,43,T,2,,325
2013-2-19,45,26,7,20,14,6,89,64,32,30.27,30.12,29.92,10,10,10,28,13,36,0.00,0,,153
2013-2-20,28,26,23,27,23,16,100,90,69,29.91,29.78,29.69,10,2,0,31,25,38,0.02,8,Fog-Rain-Snow,129
2013-2-21,25,16,6,23,12,4,93,84,73,30.04,29.80,29.67,10,5,1,21,15,29,0.01,7,Snow,31
2013-2-22,33,19,4,22,12,1,92,79,61,30.10,30.03,29.84,10,10,10,15,9,,0.00,2,,282
2013-2-23,39,25,10,28,21,9,96,84,57,29.99,29.82,29.67,10,8,0,13,9,,0.00,0,Fog,196
2013-2-24,30,28,26,29,26,24,100,92,86,30.08,29.85,29.66,10,2,0,26,16,34,T,8,Fog-Snow,21
2013-2-25,33,23,13,25,21,10,93,81,61,30.10,30.01,29.95,10,10,8,24,15,31,0.00,4,,347
2013-2-26,36,22,7,26,18,4,89,73,45,30.03,29.90,29.76,10,10,10,21,10,26,0.00,3,,329
2013-2-27,38,30,22,26,20,14,86,69,46,30.28,30.19,30.01,10,10,7,31,19,39,T,3,Snow,329
2013-2-28,42,28,14,21,15,8,78,58,33,30.32,30.26,30.22,10,10,10,24,12,37,0.00,2,,306